createdAt,value
2023-10-09T12:48:39.216Z,6.57
2023-10-09T12:51:41.861Z,5.53
2023-10-09T12:54:47.331Z,5.32
2023-10-09T12:57:52.646Z,5.70
2023-10-09T13:00:55.353Z,5.85
2023-10-09T13:04:00.797Z,4.38
2023-10-09T13:07:05.774Z,3.80
2023-10-09T13:10:14.485Z,4.32
2023-10-09T13:13:17.181Z,4.30
2023-10-09T13:16:24.441Z,4.57
2023-10-09T13:19:28.817Z,4.53
2023-10-09T13:22:31.726Z,3.65
2023-10-09T13:25:40.786Z,4.40
2023-10-09T13:28:46.379Z,4.88
2023-10-09T13:31:49.293Z,3.85
2023-10-09T13:34:56.569Z,4.25
2023-10-09T13:37:59.948Z,5.22
2023-10-09T13:41:03.095Z,4.35
2023-10-09T13:44:06.121Z,4.70
2023-10-09T13:47:20.054Z,4.68
2023-10-09T13:50:30.846Z,4.93
2023-10-09T13:53:36.493Z,4.65
2023-10-09T13:56:40.279Z,3.95
2023-10-09T13:59:50.049Z,4.65
2023-10-09T14:02:52.951Z,4.28
2023-10-09T14:05:58.152Z,4.20
2023-10-09T14:09:03.172Z,4.60
2023-10-09T14:12:10.242Z,4.35
2023-10-09T14:15:18.237Z,4.57
2023-10-09T14:18:21.199Z,4.10
2023-10-09T14:21:26.839Z,4.80
2023-10-09T14:24:34.090Z,4.60
2023-10-09T14:27:36.892Z,4.85
2023-10-09T14:30:43.900Z,4.60
2023-10-09T14:33:52.580Z,5.10
2023-10-09T14:36:56.834Z,4.28
2023-10-09T14:39:59.997Z,4.72
2023-10-09T14:43:04.438Z,4.25
2023-10-09T14:46:11.998Z,4.82
2023-10-09T14:49:15.512Z,4.80
2023-10-09T14:52:21.099Z,4.95
2023-10-09T14:55:30.194Z,4.88
2023-10-09T14:58:36.100Z,5.43
2023-10-09T15:01:39.091Z,5.45
2023-10-09T15:04:41.903Z,5.20
2023-10-09T15:07:47.637Z,5.60
2023-10-09T15:10:52.683Z,5.30
2023-10-09T15:13:55.514Z,5.70
2023-10-09T15:16:59.092Z,5.75
2023-10-09T15:20:03.184Z,5.22
2023-10-09T15:23:07.332Z,5.85
2023-10-09T15:26:10.206Z,5.75
2023-10-09T15:29:13.367Z,5.93
2023-10-09T15:32:23.503Z,5.90
2023-10-09T15:35:26.274Z,6.45
2023-10-09T15:38:30.402Z,5.40
2023-10-09T15:41:33.241Z,5.45
2023-10-09T15:44:37.914Z,5.82
2023-10-09T15:47:41.235Z,5.80
2023-10-09T15:50:49.411Z,5.68
2023-10-09T15:53:53.522Z,6.28
2023-10-09T16:00:14.653Z,4.68
2023-10-09T16:03:17.456Z,5.93
2023-10-09T16:06:20.255Z,5.47
2023-10-09T16:09:26.710Z,6.13
2023-10-09T16:12:31.890Z,5.18
2023-10-09T16:15:34.683Z,4.80
2023-10-09T16:18:38.912Z,4.53
2023-10-09T16:21:41.657Z,5.68
2023-10-09T16:24:45.771Z,4.70
2023-10-09T16:27:48.719Z,4.35
2023-10-09T16:30:51.539Z,5.25
2023-10-09T16:33:54.283Z,5.75
2023-10-09T16:36:57.018Z,5.28
2023-10-09T16:40:06.793Z,5.47
2023-10-09T16:43:14.540Z,5.65
2023-10-09T16:46:18.028Z,5.82
2023-10-09T16:49:26.095Z,5.22
2023-10-09T16:52:28.731Z,4.90
2023-10-09T16:55:32.778Z,5.20
2023-10-09T16:58:35.635Z,4.90
2023-10-09T17:01:38.790Z,4.85
2023-10-09T17:04:43.676Z,5.10
2023-10-09T17:07:46.696Z,4.15
2023-10-09T17:10:52.452Z,5.43
2023-10-09T17:13:58.797Z,5.07
2023-10-09T17:17:01.792Z,5.28
2023-10-09T17:20:11.035Z,5.03
2023-10-09T17:23:13.890Z,5.57
2023-10-09T17:26:19.431Z,4.97
2023-10-09T17:29:22.341Z,5.72
2023-10-09T17:32:25.199Z,5.18
2023-10-09T17:35:29.062Z,5.13
2023-10-09T17:38:32.290Z,4.43
2023-10-09T17:41:36.985Z,5.35
2023-10-09T17:44:40.755Z,5.45
2023-10-09T17:47:45.232Z,5.30
2023-10-09T17:50:48.037Z,5.72
2023-10-09T17:53:50.767Z,5.90
2023-10-09T17:56:56.863Z,6.25
2023-10-09T17:59:59.588Z,6.17
2023-10-09T18:03:02.434Z,6.45
2023-10-09T18:06:06.445Z,6.07
2023-10-09T18:09:17.026Z,5.55
2023-10-09T18:12:22.716Z,5.85
2023-10-09T18:15:25.514Z,6.50
2023-10-09T18:18:28.265Z,6.25
2023-10-09T18:21:31.000Z,6.32
2023-10-09T18:24:40.367Z,6.60
2023-10-09T18:27:44.405Z,6.20
2023-10-09T18:30:50.302Z,6.90
2023-10-09T18:33:54.181Z,6.47
2023-10-09T18:36:57.218Z,5.90
2023-10-09T18:40:00.715Z,5.65
2023-10-09T18:43:05.743Z,5.85
2023-10-09T18:46:10.422Z,5.78
2023-10-09T18:49:13.673Z,6.65
2023-10-09T18:52:17.708Z,6.63
2023-10-09T18:55:22.532Z,6.30
2023-10-09T18:58:26.602Z,5.10
2023-10-09T19:01:30.309Z,5.30
2023-10-09T19:04:33.961Z,5.38
2023-10-09T19:07:37.253Z,5.47
2023-10-09T19:10:42.223Z,4.65
2023-10-09T19:13:48.087Z,4.55
2023-10-09T19:16:50.966Z,4.35
2023-10-09T19:19:53.907Z,4.63
2023-10-09T19:22:56.632Z,4.38
2023-10-09T19:25:59.402Z,4.03
2023-10-09T19:29:03.544Z,4.03
2023-10-09T19:32:06.888Z,4.28
2023-10-09T19:35:10.122Z,3.88
2023-10-09T19:38:13.745Z,4.55
2023-10-09T19:41:17.702Z,4.20
2023-10-09T19:44:21.840Z,4.68
2023-10-09T19:47:24.741Z,4.63
2023-10-09T19:50:27.492Z,4.45
2023-10-09T19:53:30.333Z,3.90
2023-10-09T19:56:33.090Z,3.85
2023-10-09T19:59:37.502Z,4.03
2023-10-09T20:02:42.317Z,4.25
2023-10-09T20:05:45.108Z,3.88
2023-10-09T20:08:48.675Z,3.80
2023-10-09T20:11:51.512Z,4.60
2023-10-09T20:14:56.236Z,4.47
2023-10-09T20:17:58.955Z,4.72
2023-10-09T20:21:02.160Z,4.65
2023-10-09T20:24:05.089Z,4.55
2023-10-09T20:27:07.821Z,4.32
2023-10-09T20:30:13.091Z,4.75
2023-10-09T20:33:17.263Z,5.75
2023-10-09T20:36:20.602Z,4.60
2023-10-09T20:39:24.423Z,5.53
2023-10-09T20:42:28.667Z,6.20
2023-10-09T20:45:34.322Z,5.07
2023-10-09T20:48:38.462Z,4.60
2023-10-09T20:51:54.347Z,4.60
2023-10-09T20:54:59.690Z,5.72
2023-10-09T20:58:02.487Z,5.10
2023-10-09T21:01:15.665Z,4.82
2023-10-09T21:04:19.212Z,4.95
2023-10-09T21:07:21.944Z,5.22
2023-10-09T21:10:24.880Z,4.30
2023-10-09T21:13:28.058Z,5.35
2023-10-09T21:16:32.193Z,5.00
2023-10-09T21:19:34.928Z,5.43
2023-10-09T21:22:39.341Z,4.78
2023-10-09T21:25:42.003Z,4.80
2023-10-09T21:28:45.320Z,5.18
2023-10-09T21:31:50.474Z,4.65
2023-10-09T21:34:53.726Z,5.70
2023-10-09T21:37:57.308Z,5.68
2023-10-09T21:41:02.224Z,4.80
2023-10-09T21:44:05.212Z,5.25
2023-10-09T21:47:09.306Z,5.10
2023-10-09T21:50:13.407Z,4.93
2023-10-09T21:53:17.524Z,5.50
2023-10-09T21:56:21.319Z,5.88
2023-10-09T21:59:24.183Z,4.90
2023-10-09T22:02:31.205Z,6.03
2023-10-09T22:05:34.129Z,7.00
2023-10-09T22:08:38.488Z,7.70
2023-10-09T22:11:41.138Z,8.80
2023-10-09T22:14:43.788Z,9.65
2023-10-09T22:17:47.993Z,10.02
2023-10-09T22:20:50.802Z,8.45
2023-10-09T22:23:54.960Z,7.18
2023-10-09T22:26:58.327Z,8.32
2023-10-09T22:30:06.297Z,7.85
2023-10-09T22:33:13.503Z,8.43
2023-10-09T22:36:28.598Z,9.13
2023-10-09T22:39:34.785Z,10.25
2023-10-09T22:42:37.480Z,8.98
2023-10-09T22:45:43.735Z,10.25
2023-10-09T22:48:52.249Z,9.73
2023-10-09T22:51:55.536Z,10.40
2023-10-09T22:55:00.803Z,9.93
2023-10-09T22:58:12.230Z,11.88
2023-10-09T23:01:19.640Z,10.05
2023-10-09T23:04:37.788Z,7.20
2023-10-09T23:07:42.655Z,10.25
2023-10-09T23:10:51.919Z,8.57
2023-10-09T23:14:07.843Z,9.63
2023-10-09T23:17:18.923Z,6.80
2023-10-09T23:20:23.408Z,9.82
2023-10-09T23:23:26.236Z,11.75
2023-10-09T23:26:34.165Z,12.48
2023-10-09T23:29:36.964Z,13.25
2023-10-09T23:32:47.845Z,14.07
2023-10-09T23:36:05.040Z,9.32
2023-10-09T23:39:14.761Z,7.05
2023-10-09T23:42:17.785Z,7.55
2023-10-09T23:45:21.946Z,10.27
2023-10-09T23:48:25.602Z,9.90
2023-10-09T23:51:30.042Z,9.63
2023-10-09T23:54:34.472Z,2.65
2023-10-09T23:57:44.089Z,10.88
